Time;durP1;ratioP1;P1;durP2;ratioP2;P2;SDS_P1;SDS_P2;PMS_P1;PMS_P2;Temp;Humidity;BMP_temperature;BMP_pressure;BME280_temperature;BME280_humidity;BME280_pressure;Samples;Min_cycle;Max_cycle;Signal;HPM_P1;HPM_P2
2023/12/04 00:00:29;;;;;;;7.13;4.30;;;;;-5.10;93810.00;;;;7398276;19;20122;-75
2023/12/04 00:03:03;;;;;;;7.17;4.50;;;;;-5.10;93799.00;;;;7398805;19;20135;-75
2023/12/04 00:05:31;;;;;;;6.93;4.93;;;;;-5.10;93792.00;;;;7398095;19;20156;-75
2023/12/04 00:08:05;;;;;;;6.63;4.37;;;;;-5.20;93790.00;;;;7398051;19;20465;-75
2023/12/04 00:10:35;;;;;;;6.70;4.27;;;;;-5.20;93797.00;;;;7399467;19;20616;-75
2023/12/04 00:13:03;;;;;;;6.80;4.30;;;;;-5.10;93786.00;;;;7398724;19;20600;-76
2023/12/04 00:15:45;;;;;;;6.07;4.40;;;;;-5.00;93779.00;;;;7397771;19;20144;-75
2023/12/04 00:18:19;;;;;;;7.03;4.67;;;;;-5.10;93776.00;;;;7399769;19;20192;-75
2023/12/04 00:20:53;;;;;;;5.97;3.83;;;;;-5.10;93785.00;;;;7399462;19;20134;-76
2023/12/04 00:23:21;;;;;;;5.60;4.00;;;;;-5.00;93780.00;;;;7397020;19;20154;-75
2023/12/04 00:25:49;;;;;;;6.33;4.30;;;;;-5.00;93776.00;;;;7394202;19;20146;-74
2023/12/04 00:28:23;;;;;;;6.17;3.50;;;;;-5.10;93773.00;;;;7388418;19;20608;-74
2023/12/04 00:30:51;;;;;;;9.07;4.50;;;;;-5.10;93780.00;;;;7396716;19;20661;-75
2023/12/04 00:33:25;;;;;;;7.20;4.33;;;;;-5.10;93766.00;;;;7398935;19;20136;-75
2023/12/04 00:36:09;;;;;;;6.37;4.30;;;;;-5.10;93778.00;;;;7398489;19;20121;-75
2023/12/04 00:38:45;;;;;;;7.47;4.50;;;;;-5.20;93777.00;;;;7398511;19;20133;-75
2023/12/04 00:41:12;;;;;;;6.47;4.20;;;;;-5.30;93782.00;;;;7397762;19;20134;-75
2023/12/04 00:43:48;;;;;;;6.57;4.67;;;;;-5.30;93768.00;;;;7396923;19;20136;-75
2023/12/04 00:46:16;;;;;;;7.00;4.53;;;;;-5.20;93778.00;;;;7397509;19;20165;-75
2023/12/04 00:48:49;;;;;;;8.20;5.07;;;;;-5.20;93774.00;;;;7399382;19;20481;-75
2023/12/04 00:51:17;;;;;;;7.07;4.10;;;;;-5.20;93777.00;;;;7396517;19;20142;-75
2023/12/04 00:53:51;;;;;;;7.23;4.73;;;;;-5.20;93762.00;;;;7397399;19;20173;-74
2023/12/04 00:56:20;;;;;;;6.97;4.40;;;;;-5.00;93754.00;;;;7396130;19;20506;-74
2023/12/04 00:58:52;;;;;;;6.93;4.20;;;;;-4.90;93750.00;;;;7398468;19;20135;-75
2023/12/04 01:01:28;;;;;;;7.27;4.33;;;;;-4.90;93752.00;;;;7397323;19;20129;-75
2023/12/04 01:04:02;;;;;;;7.07;4.13;;;;;-5.00;93747.00;;;;7398207;19;20131;-75
2023/12/04 01:06:30;;;;;;;7.30;4.33;;;;;-5.00;93741.00;;;;7395655;19;20157;-74
2023/12/04 01:09:04;;;;;;;7.73;4.90;;;;;-5.00;93736.00;;;;7397958;19;20139;-75
2023/12/04 01:11:38;;;;;;;8.27;4.83;;;;;-5.00;93737.00;;;;7397792;19;20133;-75
2023/12/04 01:14:12;;;;;;;6.87;4.03;;;;;-5.00;93739.00;;;;7396787;19;20470;-74
2023/12/04 01:16:47;;;;;;;6.63;4.17;;;;;-4.90;93739.00;;;;7402171;19;20177;-74
2023/12/04 01:19:21;;;;;;;7.83;4.50;;;;;-4.90;93736.00;;;;7405728;19;20193;-75
2023/12/04 01:21:49;;;;;;;7.00;4.53;;;;;-4.90;93732.00;;;;7403497;19;20643;-74
2023/12/04 01:24:23;;;;;;;7.47;4.33;;;;;-4.80;93727.00;;;;7404203;19;20584;-75
2023/12/04 01:26:59;;;;;;;9.00;4.27;;;;;-4.80;93724.00;;;;7404893;19;20644;-75
2023/12/04 01:29:26;;;;;;;6.93;4.23;;;;;-4.90;93721.00;;;;7399798;19;20600;-74
2023/12/04 01:32:00;;;;;;;5.97;3.77;;;;;-4.90;93716.00;;;;7404460;19;20138;-75
2023/12/04 01:34:28;;;;;;;6.43;4.10;;;;;-5.00;93714.00;;;;7404530;19;20137;-75
2023/12/04 01:37:02;;;;;;;5.50;4.00;;;;;-4.90;93723.00;;;;7404383;19;20129;-75
2023/12/04 01:39:31;;;;;;;5.60;3.27;;;;;-4.90;93723.00;;;;7403008;19;20142;-74
2023/12/04 01:41:59;;;;;;;4.97;3.03;;;;;-4.80;93722.00;;;;7403970;19;20157;-75
2023/12/04 01:44:33;;;;;;;6.20;3.37;;;;;-4.70;93715.00;;;;7404424;19;20159;-74
2023/12/04 01:47:07;;;;;;;4.43;3.07;;;;;-4.80;93713.00;;;;7403189;19;20153;-75
2023/12/04 01:49:35;;;;;;;5.07;3.17;;;;;-4.70;93703.00;;;;7404098;19;20155;-75
2023/12/04 01:52:09;;;;;;;5.17;3.20;;;;;-4.80;93698.00;;;;7403304;19;20148;-75
2023/12/04 01:54:37;;;;;;;4.93;3.07;;;;;-4.70;93690.00;;;;7402658;19;20166;-74
2023/12/04 01:57:11;;;;;;;4.80;3.17;;;;;-4.60;93696.00;;;;7401500;19;20149;-75
2023/12/04 01:59:46;;;;;;;5.87;3.10;;;;;-4.60;93700.00;;;;7403473;19;20147;-71
2023/12/04 02:02:21;;;;;;;4.23;2.90;;;;;-4.70;93701.00;;;;7401289;19;20144;-71
2023/12/04 02:04:48;;;;;;;3.53;2.43;;;;;-4.80;93708.00;;;;7402069;19;20145;-70
2023/12/04 02:07:23;;;;;;;4.17;2.70;;;;;-4.70;93708.00;;;;7401701;19;20132;-70
2023/12/04 02:09:57;;;;;;;4.57;2.93;;;;;-4.50;93711.00;;;;7403170;19;20200;-70
2023/12/04 02:12:31;;;;;;;4.47;2.63;;;;;-4.50;93707.00;;;;7400586;19;20166;-71
2023/12/04 02:15:05;;;;;;;4.63;3.03;;;;;-4.60;93700.00;;;;7400584;19;20597;-70
2023/12/04 02:17:49;;;;;;;4.17;2.60;;;;;-4.60;93694.00;;;;7401364;19;20151;-71
2023/12/04 02:20:17;;;;;;;5.30;2.90;;;;;-4.60;93691.00;;;;7403037;19;20589;-71
2023/12/04 02:22:51;;;;;;;3.80;2.43;;;;;-4.50;93700.00;;;;7401664;19;20174;-71
2023/12/04 02:25:19;;;;;;;3.77;2.53;;;;;-4.50;93695.00;;;;7400472;19;20135;-70
2023/12/04 02:28:13;;;;;;;4.77;2.93;;;;;-4.70;93681.00;;;;7401217;19;20137;-71
2023/12/04 02:30:43;;;;;;;4.37;2.73;;;;;-4.60;93674.00;;;;7401769;19;20214;-70
2023/12/04 02:33:19;;;;;;;4.93;2.80;;;;;-4.60;93671.00;;;;7401369;19;20163;-72
2023/12/04 02:35:57;;;;;;;4.03;2.47;;;;;-4.60;93668.00;;;;7400946;19;20153;-72
2023/12/04 02:38:25;;;;;;;3.73;2.53;;;;;-4.60;93659.00;;;;7402107;19;20133;-71
2023/12/04 02:40:59;;;;;;;5.20;2.90;;;;;-4.70;93654.00;;;;7401092;19;20552;-71
2023/12/04 02:43:28;;;;;;;3.37;2.30;;;;;-4.70;93646.00;;;;7401005;19;20125;-70
2023/12/04 02:46:03;;;;;;;3.70;2.50;;;;;-4.60;93654.00;;;;7402058;19;20588;-72
2023/12/04 02:48:39;;;;;;;3.30;2.20;;;;;-4.70;93651.00;;;;7399051;19;20141;-72
2023/12/04 02:51:13;;;;;;;4.53;2.60;;;;;-4.60;93648.00;;;;7400268;19;20194;-71
2023/12/04 02:53:41;;;;;;;4.27;2.90;;;;;-4.60;93640.00;;;;7401697;19;20135;-71
2023/12/04 02:56:19;;;;;;;4.10;2.80;;;;;-4.60;93635.00;;;;7399620;19;20622;-71
2023/12/04 02:58:49;;;;;;;4.07;2.40;;;;;-4.50;93626.00;;;;7401708;19;20619;-71
2023/12/04 03:01:24;;;;;;;4.80;2.83;;;;;-4.50;93625.00;;;;7400569;19;20175;-71
2023/12/04 03:03:51;;;;;;;3.60;2.27;;;;;-4.50;93619.00;;;;7401696;19;20137;-71
2023/12/04 03:06:26;;;;;;;3.67;2.50;;;;;-4.40;93621.00;;;;7399827;19;20124;-72
2023/12/04 03:09:00;;;;;;;3.87;2.40;;;;;-4.50;93616.00;;;;7400127;19;20136;-73
2023/12/04 03:11:38;;;;;;;3.70;2.17;;;;;-4.30;93609.00;;;;7400942;19;20131;-71
2023/12/04 03:14:13;;;;;;;5.13;2.77;;;;;-4.50;93609.00;;;;7397569;19;20189;-71
2023/12/04 03:16:47;;;;;;;3.40;2.60;;;;;-4.40;93608.00;;;;7399460;19;20662;-72
2023/12/04 03:19:22;;;;;;;4.23;2.40;;;;;-4.40;93592.00;;;;7399102;19;20144;-71
2023/12/04 03:21:59;;;;;;;4.33;2.67;;;;;-4.50;93597.00;;;;7400987;19;20479;-72
2023/12/04 03:24:38;;;;;;;4.77;2.70;;;;;-4.30;93596.00;;;;7397095;19;20158;-71
2023/12/04 03:27:11;;;;;;;3.50;2.33;;;;;-4.20;93580.00;;;;7399988;19;20494;-71
2023/12/04 03:29:45;;;;;;;5.27;3.23;;;;;-4.20;93587.00;;;;7397274;19;20213;-73
2023/12/04 03:32:13;;;;;;;4.60;2.73;;;;;-4.10;93576.00;;;;7398906;19;20626;-71
2023/12/04 03:34:46;;;;;;;4.13;2.70;;;;;-4.20;93578.00;;;;7399957;19;20164;-71
2023/12/04 03:37:21;;;;;;;3.33;2.40;;;;;-4.00;93574.00;;;;7396960;19;20165;-70
2023/12/04 03:39:50;;;;;;;4.23;2.60;;;;;-4.00;93584.00;;;;7398434;19;20151;-71
2023/12/04 03:42:24;;;;;;;5.17;3.00;;;;;-4.10;93575.00;;;;7399908;19;20137;-70
2023/12/04 03:44:59;;;;;;;4.00;2.67;;;;;-4.00;93572.00;;;;7398514;19;20518;-71
2023/12/04 03:47:40;;;;;;;3.37;2.53;;;;;-4.20;93572.00;;;;7399404;19;20607;-71
2023/12/04 03:50:08;;;;;;;3.80;2.50;;;;;-4.20;93574.00;;;;7397764;19;20147;-72
2023/12/04 03:52:42;;;;;;;4.00;2.47;;;;;-4.10;93573.00;;;;7398184;19;20136;-72
2023/12/04 03:55:12;;;;;;;3.67;2.50;;;;;-4.00;93567.00;;;;7398041;19;20131;-71
2023/12/04 03:57:40;;;;;;;2.97;2.10;;;;;-4.00;93572.00;;;;7399891;19;20601;-71
2023/12/04 04:00:18;;;;;;;3.33;2.50;;;;;-4.00;93563.00;;;;7399049;19;20163;-71
2023/12/04 04:02:46;;;;;;;3.37;2.20;;;;;-4.10;93562.00;;;;7397872;19;20139;-71
2023/12/04 04:05:20;;;;;;;4.20;2.53;;;;;-3.90;93573.00;;;;7397403;19;20171;-71
2023/12/04 04:07:49;;;;;;;3.53;2.50;;;;;-3.80;93552.00;;;;7398894;19;20838;-71
2023/12/04 04:10:25;;;;;;;4.07;2.10;;;;;-3.80;93560.00;;;;7398071;19;20167;-72
2023/12/04 04:12:56;;;;;;;3.87;2.43;;;;;-3.80;93567.00;;;;7396676;19;20600;-72
2023/12/04 04:15:36;;;;;;;3.07;2.37;;;;;-4.00;93569.00;;;;7397292;19;20168;-71
2023/12/04 04:18:10;;;;;;;3.17;2.20;;;;;-4.00;93561.00;;;;7397760;19;20154;-71
2023/12/04 04:20:47;;;;;;;2.50;2.00;;;;;-4.00;93569.00;;;;7400102;19;20613;-79
2023/12/04 04:23:27;;;;;;;5.07;2.70;;;;;-4.10;93568.00;;;;7402123;19;20166;-79
2023/12/04 04:26:01;;;;;;;4.00;2.60;;;;;-4.10;93575.00;;;;7402853;19;20592;-77
2023/12/04 04:28:35;;;;;;;3.90;2.43;;;;;-4.00;93574.00;;;;7401672;19;20137;-80
2023/12/04 04:31:02;;;;;;;3.90;2.37;;;;;-4.00;93556.00;;;;7401676;19;20514;-77
2023/12/04 04:33:40;;;;;;;4.07;2.70;;;;;-4.10;93557.00;;;;7403490;19;20133;-80
2023/12/04 04:36:13;;;;;;;3.70;2.60;;;;;-4.10;93553.00;;;;7401496;19;20159;-80
2023/12/04 04:38:44;;;;;;;3.67;2.23;;;;;-3.90;93539.00;;;;7402215;19;20159;-79
2023/12/04 04:41:15;;;;;;;8.57;2.83;;;;;-4.00;93543.00;;;;7401712;19;20149;-80
2023/12/04 04:43:53;;;;;;;3.90;2.47;;;;;-4.10;93543.00;;;;7398904;19;20645;-79
2023/12/04 04:46:29;;;;;;;4.07;2.40;;;;;-4.10;93545.00;;;;7401789;19;20173;-80
2023/12/04 04:49:07;;;;;;;3.53;2.40;;;;;-3.90;93546.00;;;;7399869;19;20220;-79
2023/12/04 04:51:35;;;;;;;3.47;2.43;;;;;-3.80;93537.00;;;;7410033;19;20149;-79
2023/12/04 04:54:11;;;;;;;3.53;2.30;;;;;-3.70;93538.00;;;;7409225;19;20184;-79
2023/12/04 04:56:45;;;;;;;3.30;2.50;;;;;-3.70;93525.00;;;;7409635;19;20475;-79
2023/12/04 04:59:19;;;;;;;4.13;2.33;;;;;-3.70;93522.00;;;;7409048;19;20142;-79
2023/12/04 05:01:54;;;;;;;3.83;2.60;;;;;-3.70;93524.00;;;;7408311;19;20143;-79
2023/12/04 05:04:28;;;;;;;3.40;2.20;;;;;-3.80;93526.00;;;;7409037;19;20606;-80
2023/12/04 05:07:03;;;;;;;4.93;2.87;;;;;-3.80;93524.00;;;;7409878;19;20141;-79
2023/12/04 05:09:36;;;;;;;4.43;2.30;;;;;-3.90;93521.00;;;;7405699;19;20136;-80
2023/12/04 05:12:10;;;;;;;3.20;2.53;;;;;-3.80;93520.00;;;;7408787;19;20136;-79
2023/12/04 05:14:37;;;;;;;3.83;2.37;;;;;-3.90;93513.00;;;;7412072;19;20132;-82
2023/12/04 05:17:18;;;;;;;5.57;3.10;;;;;-3.80;93524.00;;;;7408148;19;20185;-79
2023/12/04 05:19:51;;;;;;;4.43;2.73;;;;;-3.80;93518.00;;;;7408648;19;20154;-80
2023/12/04 05:22:24;;;;;;;4.03;2.53;;;;;-3.70;93513.00;;;;7408883;19;20486;-79
2023/12/04 05:24:54;;;;;;;4.07;2.60;;;;;-3.60;93507.00;;;;7405946;19;20599;-79
2023/12/04 05:27:41;;;;;;;3.50;2.70;;;;;-3.70;93498.00;;;;7404996;19;20152;-78
2023/12/04 05:30:10;;;;;;;4.70;2.67;;;;;-3.60;93509.00;;;;7405433;19;20160;-79
2023/12/04 05:32:44;;;;;;;4.27;2.73;;;;;-3.60;93495.00;;;;7405229;19;20221;-79
2023/12/04 05:35:18;;;;;;;4.60;2.90;;;;;-3.60;93504.00;;;;7406109;19;20500;-81
2023/12/04 05:37:46;;;;;;;4.10;2.60;;;;;-3.40;93500.00;;;;7403108;19;20624;-78
2023/12/04 05:40:20;;;;;;;6.97;3.20;;;;;-3.50;93496.00;;;;7406276;19;20490;-80
2023/12/04 05:42:54;;;;;;;5.10;3.23;;;;;-3.70;93506.00;;;;7404670;19;20148;-80
2023/12/04 05:45:30;;;;;;;5.57;3.67;;;;;-3.80;93498.00;;;;7405610;19;20628;-74
2023/12/04 05:48:04;;;;;;;4.93;3.53;;;;;-3.90;93494.00;;;;7389157;19;20598;-81
2023/12/04 05:50:38;;;;;;;5.07;3.00;;;;;-3.90;93494.00;;;;7395901;19;20143;-77
2023/12/04 05:53:07;;;;;;;4.23;3.13;;;;;-4.00;93486.00;;;;7395294;19;20516;-78
2023/12/04 05:55:48;;;;;;;6.47;3.60;;;;;-3.90;93486.00;;;;7397214;19;20606;-80
2023/12/04 05:58:16;;;;;;;5.47;3.77;;;;;-4.00;93480.00;;;;7394459;19;20132;-80
2023/12/04 06:00:50;;;;;;;3.87;2.93;;;;;-4.00;93490.00;;;;7394717;19;20132;-79
2023/12/04 06:03:18;;;;;;;4.77;3.50;;;;;-3.90;93498.00;;;;7400637;19;20133;-79
2023/12/04 06:05:52;;;;;;;5.40;3.27;;;;;-4.10;93487.00;;;;7397748;19;20476;-74
2023/12/04 06:08:25;;;;;;;6.20;3.90;;;;;-4.10;93475.00;;;;7397008;19;20159;-79
2023/12/04 06:10:59;;;;;;;6.07;3.73;;;;;-4.10;93494.00;;;;7396107;19;20133;-79
2023/12/04 06:13:40;;;;;;;5.33;3.53;;;;;-4.20;93486.00;;;;7396834;19;20173;-78
2023/12/04 06:16:24;;;;;;;6.80;3.50;;;;;-4.20;93489.00;;;;7394664;19;20505;-78
2023/12/04 06:18:54;;;;;;;8.03;3.87;;;;;-4.20;93476.00;;;;7390787;19;20155;-78
2023/12/04 06:21:29;;;;;;;6.03;3.83;;;;;-4.30;93478.00;;;;7394338;19;20129;-80
2023/12/04 06:24:05;;;;;;;5.17;3.53;;;;;-4.50;93467.00;;;;7395147;19;20629;-78
2023/12/04 06:26:40;;;;;;;6.00;4.00;;;;;-4.40;93452.00;;;;7394194;19;20172;-79
2023/12/04 06:29:19;;;;;;;5.90;3.47;;;;;-4.40;93454.00;;;;7393385;19;20555;-78
2023/12/04 06:31:54;;;;;;;4.60;2.97;;;;;-4.50;93443.00;;;;7392146;19;20154;-78
2023/12/04 06:34:29;;;;;;;4.83;3.30;;;;;-4.50;93445.00;;;;7393322;19;20607;-76
2023/12/04 06:36:58;;;;;;;4.77;3.13;;;;;-4.50;93448.00;;;;7391060;19;20202;-74
2023/12/04 06:39:34;;;;;;;5.07;3.63;;;;;-4.60;93447.00;;;;7394193;19;20132;-79
2023/12/04 06:42:03;;;;;;;5.53;3.73;;;;;-4.50;93445.00;;;;7392865;19;20124;-78
2023/12/04 06:44:32;;;;;;;5.83;3.37;;;;;-4.50;93445.00;;;;7394692;19;20631;-78
2023/12/04 06:47:09;;;;;;;5.53;3.40;;;;;-4.60;93434.00;;;;7395661;19;20151;-78
2023/12/04 06:49:37;;;;;;;4.73;3.30;;;;;-4.70;93442.00;;;;7393388;19;20140;-78
2023/12/04 06:52:12;;;;;;;5.10;3.27;;;;;-4.70;93426.00;;;;7395712;19;20618;-78
2023/12/04 06:54:40;;;;;;;6.03;3.00;;;;;-4.60;93434.00;;;;7394154;19;20152;-79
2023/12/04 06:57:14;;;;;;;5.47;2.97;;;;;-4.40;93418.00;;;;7392857;19;20155;-78
2023/12/04 06:59:43;;;;;;;4.47;3.00;;;;;-4.60;93420.00;;;;7393318;19;20124;-79
2023/12/04 07:02:17;;;;;;;5.57;3.40;;;;;-4.70;93420.00;;;;7393083;19;20155;-79
2023/12/04 07:04:52;;;;;;;4.67;3.00;;;;;-4.50;93427.00;;;;7396869;19;20208;-77
2023/12/04 07:07:20;;;;;;;4.87;3.03;;;;;-4.50;93425.00;;;;7394245;19;20160;-75
2023/12/04 07:09:55;;;;;;;4.63;3.07;;;;;-4.50;93420.00;;;;7393574;19;20177;-75
2023/12/04 07:12:23;;;;;;;4.67;3.20;;;;;-4.50;93414.00;;;;7391374;19;20154;-79
2023/12/04 07:14:58;;;;;;;4.97;3.10;;;;;-4.40;93412.00;;;;7391746;19;20148;-79
2023/12/04 07:17:38;;;;;;;4.83;3.40;;;;;-4.20;93408.00;;;;7391999;19;20538;-77
2023/12/04 07:20:13;;;;;;;5.03;3.13;;;;;-4.30;93407.00;;;;7390887;19;20169;-79
2023/12/04 07:22:42;;;;;;;5.10;3.27;;;;;-4.30;93411.00;;;;7394381;19;20136;-76
2023/12/04 07:25:11;;;;;;;4.63;3.13;;;;;-4.30;93410.00;;;;7393563;19;20152;-80
2023/12/04 07:27:46;;;;;;;3.20;2.67;;;;;-4.20;93417.00;;;;7390955;19;20491;-80
2023/12/04 07:30:14;;;;;;;4.73;3.20;;;;;-4.00;93425.00;;;;7392160;19;20597;-76
2023/12/04 07:32:50;;;;;;;7.13;3.47;;;;;-4.00;93403.00;;;;7393034;19;20242;-79
2023/12/04 07:35:25;;;;;;;4.67;2.20;;;;;-4.10;93418.00;;;;7392608;19;20137;-78
2023/12/04 07:37:53;;;;;;;2.90;2.10;;;;;-4.00;93414.00;;;;7391501;19;20141;-78
2023/12/04 07:40:28;;;;;;;3.23;1.77;;;;;-3.70;93417.00;;;;7399705;19;20154;-79
2023/12/04 07:42:56;;;;;;;2.73;1.90;;;;;-3.50;93423.00;;;;7392548;19;20144;-77
2023/12/04 07:45:31;;;;;;;2.27;1.67;;;;;-2.70;93431.00;;;;7395275;19;20604;-77
2023/12/04 07:47:59;;;;;;;2.20;1.80;;;;;-2.60;93426.00;;;;7397310;19;20200;-75
2023/12/04 07:50:35;;;;;;;2.07;1.50;;;;;-2.40;93425.00;;;;7395457;19;20181;-74
2023/12/04 07:53:11;;;;;;;2.30;1.60;;;;;-2.60;93419.00;;;;7389140;19;20140;-71
2023/12/04 07:55:39;;;;;;;1.77;1.40;;;;;-2.90;93419.00;;;;7390296;19;20220;-72
2023/12/04 07:58:07;;;;;;;2.97;1.50;;;;;-2.70;93407.00;;;;7389450;19;22674;-71
2023/12/04 08:01:04;;;;;;;3.80;1.50;;;;;-2.60;93401.00;;;;7387834;19;20276;-71
2023/12/04 08:03:42;;;;;;;1.63;1.30;;;;;-2.80;93403.00;;;;7391079;19;20162;-73
2023/12/04 08:06:20;;;;;;;2.23;1.90;;;;;-2.80;93395.00;;;;7389452;19;20148;-71
2023/12/04 08:08:55;;;;;;;1.30;1.20;;;;;-2.40;93401.00;;;;7388425;19;20139;-71
2023/12/04 08:11:31;;;;;;;2.87;2.30;;;;;-2.70;93414.00;;;;7388619;19;20211;-71
2023/12/04 08:14:06;;;;;;;2.40;1.70;;;;;-3.20;93410.00;;;;7389445;19;20512;-74
2023/12/04 08:16:55;;;;;;;2.60;1.30;;;;;-2.90;93408.00;;;;7388532;19;20164;-71
2023/12/04 08:19:30;;;;;;;2.03;1.20;;;;;-2.70;93400.00;;;;7390132;19;20155;-75
2023/12/04 08:22:04;;;;;;;1.83;1.47;;;;;-2.50;93376.00;;;;7388694;19;20137;-71
2023/12/04 08:24:32;;;;;;;1.57;1.20;;;;;-2.30;93383.00;;;;7389237;19;20154;-71
2023/12/04 08:27:07;;;;;;;3.47;1.30;;;;;-2.10;93372.00;;;;7388616;19;20197;-71
2023/12/04 08:29:35;;;;;;;1.60;1.20;;;;;-1.80;93379.00;;;;7385312;19;20136;-72
2023/12/04 08:32:09;;;;;;;4.57;1.30;;;;;-1.60;93383.00;;;;7385875;19;20147;-72
2023/12/04 08:34:44;;;;;;;2.13;1.40;;;;;-1.40;93387.00;;;;7388619;19;20498;-75
2023/12/04 08:37:19;;;;;;;2.10;1.53;;;;;-1.70;93383.00;;;;7390139;19;20131;-72
2023/12/04 08:39:47;;;;;;;4.03;2.63;;;;;-1.60;93392.00;;;;7387324;19;20148;-72
2023/12/04 08:42:15;;;;;;;2.47;1.80;;;;;-1.80;93386.00;;;;7388716;19;20133;-74
2023/12/04 08:44:50;;;;;;;4.27;1.30;;;;;-1.70;93393.00;;;;7388058;19;20494;-74
2023/12/04 08:47:18;;;;;;;1.77;1.40;;;;;-1.20;93395.00;;;;7389003;19;20162;-76
2023/12/04 08:49:53;;;;;;;1.60;1.30;;;;;-1.30;93388.00;;;;7388987;19;20601;-75
2023/12/04 08:52:28;;;;;;;1.37;1.10;;;;;-1.50;93398.00;;;;7389443;19;20128;-72
2023/12/04 08:55:07;;;;;;;2.03;1.20;;;;;-1.60;93396.00;;;;7390251;19;20155;-74
2023/12/04 08:57:36;;;;;;;1.43;1.07;;;;;-1.70;93397.00;;;;7388415;19;20153;-73
2023/12/04 09:00:10;;;;;;;3.23;1.17;;;;;-1.50;93400.00;;;;7388485;19;20173;-77
2023/12/04 09:02:39;;;;;;;1.47;1.23;;;;;-1.60;93396.00;;;;7392533;19;20148;-79
2023/12/04 09:05:24;;;;;;;2.17;1.40;;;;;-1.30;93410.00;;;;7398900;19;20129;-77
2023/12/04 09:07:52;;;;;;;3.10;1.67;;;;;-1.20;93401.00;;;;7395979;19;20164;-77
2023/12/04 09:10:47;;;;;;;1.43;1.20;;;;;-1.10;93403.00;;;;7398949;19;20133;-77
2023/12/04 09:13:35;;;;;;;2.03;1.40;;;;;-0.90;93407.00;;;;7392221;19;20642;-78
2023/12/04 09:16:26;;;;;;;1.63;1.07;;;;;-1.00;93418.00;;;;7391625;19;20153;-77
2023/12/04 09:19:01;;;;;;;2.00;1.37;;;;;-0.90;93422.00;;;;7391215;19;20147;-77
2023/12/04 09:21:36;;;;;;;2.20;1.10;;;;;-0.90;93425.00;;;;7393440;19;20507;-78
2023/12/04 09:24:04;;;;;;;1.90;1.17;;;;;-0.70;93435.00;;;;7391785;19;20149;-79
2023/12/04 09:26:38;;;;;;;1.13;1.00;;;;;-0.60;93430.00;;;;7392354;19;20523;-79
2023/12/04 09:29:05;;;;;;;1.90;1.30;;;;;-0.50;93428.00;;;;7391304;19;20133;-77
2023/12/04 09:31:33;;;;;;;2.03;1.10;;;;;-0.20;93421.00;;;;7387969;19;20166;-79
2023/12/04 09:34:09;;;;;;;1.23;1.07;;;;;-0.10;93404.00;;;;7388543;19;20161;-78
2023/12/04 09:36:43;;;;;;;1.53;1.17;;;;;0.10;93399.00;;;;7393483;19;20474;-76
2023/12/04 09:39:11;;;;;;;1.70;1.20;;;;;0.30;93401.00;;;;7394950;19;20129;-79
2023/12/04 09:41:46;;;;;;;0.93;0.90;;;;;0.30;93393.00;;;;7395020;19;20230;-75
2023/12/04 09:44:24;;;;;;;1.00;0.90;;;;;0.50;93408.00;;;;7394901;19;20626;-79
2023/12/04 09:46:53;;;;;;;1.40;0.87;;;;;0.30;93402.00;;;;7397283;19;20129;-75
2023/12/04 09:49:29;;;;;;;1.30;1.00;;;;;0.40;93399.00;;;;7393124;19;20148;-79
2023/12/04 09:52:06;;;;;;;0.80;0.80;;;;;0.70;93401.00;;;;7393233;19;20129;-80
2023/12/04 09:54:49;;;;;;;0.73;0.73;;;;;1.10;93396.00;;;;7397600;19;20165;-79
2023/12/04 09:57:17;;;;;;;1.40;1.30;;;;;1.30;93402.00;;;;7401123;19;20211;-77
2023/12/04 09:59:53;;;;;;;1.53;0.90;;;;;1.50;93413.00;;;;7405702;19;20212;-75
2023/12/04 10:02:27;;;;;;;1.00;0.90;;;;;1.50;93410.00;;;;7406049;19;20752;-78
2023/12/04 10:04:55;;;;;;;1.40;0.77;;;;;1.60;93404.00;;;;7400666;19;20132;-79
2023/12/04 10:07:30;;;;;;;2.60;0.97;;;;;1.70;93412.00;;;;7396693;19;20180;-79
2023/12/04 10:09:58;;;;;;;2.60;1.20;;;;;1.80;93402.00;;;;7400014;19;20497;-75
2023/12/04 10:12:27;;;;;;;1.00;0.67;;;;;1.70;93398.00;;;;7391416;19;20266;-75
2023/12/04 10:15:10;;;;;;;1.63;0.93;;;;;2.00;93400.00;;;;7389701;19;20154;-74
2023/12/04 10:17:43;;;;;;;2.67;0.83;;;;;1.80;93390.00;;;;7390587;19;20181;-74
2023/12/04 10:20:21;;;;;;;1.70;1.40;;;;;1.30;93388.00;;;;7389824;19;20148;-74
2023/12/04 10:22:56;;;;;;;1.63;1.33;;;;;1.30;93382.00;;;;7390660;19;20145;-73
2023/12/04 10:25:32;;;;;;;5.93;1.17;;;;;1.50;93374.00;;;;7387888;19;20488;-73
2023/12/04 10:28:13;;;;;;;1.73;1.30;;;;;2.00;93363.00;;;;7391639;19;20462;-74
2023/12/04 10:30:48;;;;;;;2.20;1.10;;;;;1.90;93356.00;;;;7391810;19;20155;-73
2023/12/04 10:33:16;;;;;;;1.30;1.10;;;;;1.90;93344.00;;;;7389451;19;20141;-73
2023/12/04 10:35:46;;;;;;;1.87;1.47;;;;;1.80;93336.00;;;;7391194;19;20136;-74
2023/12/04 10:38:22;;;;;;;2.13;1.43;;;;;1.80;93335.00;;;;7390989;19;20152;-74
2023/12/04 10:41:11;;;;;;;1.50;1.40;;;;;1.50;93332.00;;;;7389154;19;20152;-75
2023/12/04 10:43:48;;;;;;;2.83;1.63;;;;;1.80;93328.00;;;;7391190;19;20474;-74
2023/12/04 10:46:35;;;;;;;2.87;1.73;;;;;1.70;93327.00;;;;7388063;19;20132;-74
2023/12/04 10:49:10;;;;;;;2.77;1.77;;;;;1.60;93334.00;;;;7390167;19;20159;-73
2023/12/04 10:51:46;;;;;;;3.73;1.80;;;;;1.50;93328.00;;;;7389590;19;20152;-73
2023/12/04 10:54:20;;;;;;;3.40;1.53;;;;;1.40;93329.00;;;;7389587;19;20870;-73
2023/12/04 10:56:51;;;;;;;1.97;1.50;;;;;1.20;93325.00;;;;7390399;19;20151;-74
2023/12/04 10:59:32;;;;;;;4.63;1.60;;;;;1.20;93325.00;;;;7389379;19;20148;-74
2023/12/04 11:02:04;;;;;;;2.73;1.40;;;;;1.30;93320.00;;;;7390265;19;20144;-74
2023/12/04 11:04:41;;;;;;;1.60;1.10;;;;;1.30;93317.00;;;;7388802;19;20646;-74
2023/12/04 11:07:10;;;;;;;1.93;1.60;;;;;1.00;93318.00;;;;7390370;19;20133;-75
2023/12/04 11:09:48;;;;;;;3.27;1.30;;;;;0.90;93326.00;;;;7388948;19;20515;-74
2023/12/04 11:12:21;;;;;;;2.57;1.40;;;;;0.90;93322.00;;;;7389666;19;20157;-73
2023/12/04 11:15:02;;;;;;;3.57;1.27;;;;;0.90;93316.00;;;;7388524;19;20742;-74
2023/12/04 11:17:39;;;;;;;1.77;1.30;;;;;0.90;93310.00;;;;7387683;19;20846;-74
2023/12/04 11:20:24;;;;;;;2.83;1.30;;;;;1.00;93291.00;;;;7389084;19;20145;-74
2023/12/04 11:22:56;;;;;;;1.40;1.07;;;;;1.00;93289.00;;;;7388386;19;20152;-73
2023/12/04 11:25:34;;;;;;;4.60;1.40;;;;;0.90;93285.00;;;;7386302;19;20654;-73
2023/12/04 11:28:05;;;;;;;3.17;1.40;;;;;0.90;93276.00;;;;7388503;19;20241;-73
2023/12/04 11:30:41;;;;;;;3.47;1.60;;;;;1.10;93257.00;;;;7387560;19;20129;-73
2023/12/04 11:33:15;;;;;;;1.80;1.40;;;;;1.60;93250.00;;;;7387690;19;20136;-73
2023/12/04 11:35:51;;;;;;;3.07;1.77;;;;;2.00;93232.00;;;;7390172;19;20132;-73
2023/12/04 11:38:19;;;;;;;2.73;1.73;;;;;2.20;93243.00;;;;7388701;19;20128;-73
2023/12/04 11:40:53;;;;;;;2.57;1.80;;;;;1.80;93228.00;;;;7386882;19;20236;-73
2023/12/04 11:43:31;;;;;;;3.10;1.90;;;;;1.70;93234.00;;;;7387920;19;20141;-73
2023/12/04 11:46:10;;;;;;;2.90;1.90;;;;;1.60;93235.00;;;;7388218;19;20167;-73
2023/12/04 11:48:44;;;;;;;2.97;1.90;;;;;1.30;93239.00;;;;7388707;19;20152;-73
2023/12/04 11:51:42;;;;;;;2.87;2.17;;;;;1.10;93233.00;;;;7390896;19;20247;-73
2023/12/04 11:54:13;;;;;;;3.00;1.93;;;;;1.10;93219.00;;;;7388826;19;20200;-73
2023/12/04 11:57:11;;;;;;;5.20;2.60;;;;;1.50;93206.00;;;;7389830;19;20147;-73
2023/12/04 11:59:46;;;;;;;4.37;3.50;;;;;1.60;93212.00;;;;7387329;19;20625;-73
2023/12/04 12:02:21;;;;;;;7.17;4.07;;;;;1.40;93206.00;;;;7390325;19;20136;-73
2023/12/04 12:04:49;;;;;;;6.97;4.40;;;;;1.30;93207.00;;;;7390053;19;20173;-73
2023/12/04 12:07:24;;;;;;;6.37;4.37;;;;;1.20;93201.00;;;;7390702;19;20161;-72
2023/12/04 12:09:59;;;;;;;7.37;5.03;;;;;1.00;93194.00;;;;7389232;19;20144;-73
2023/12/04 12:12:28;;;;;;;6.90;5.00;;;;;1.20;93189.00;;;;7389450;19;20180;-73
2023/12/04 12:15:08;;;;;;;8.23;5.10;;;;;1.30;93187.00;;;;7392063;19;20543;-73
2023/12/04 12:17:47;;;;;;;8.30;5.53;;;;;1.40;93188.00;;;;7389487;19;20179;-73
2023/12/04 12:20:22;;;;;;;7.60;5.60;;;;;1.00;93191.00;;;;7391860;19;20165;-74
2023/12/04 12:22:57;;;;;;;11.33;6.80;;;;;0.70;93183.00;;;;7389876;19;20147;-73
2023/12/04 12:25:33;;;;;;;10.53;6.30;;;;;0.40;93177.00;;;;7387018;19;20148;-73
2023/12/04 12:28:07;;;;;;;10.40;7.20;;;;;0.50;93166.00;;;;7390611;19;20196;-75
2023/12/04 12:30:35;;;;;;;10.07;6.77;;;;;0.60;93170.00;;;;7389296;19;20137;-74
2023/12/04 12:33:14;;;;;;;11.17;7.70;;;;;0.70;93163.00;;;;7390415;19;20475;-73
2023/12/04 12:35:42;;;;;;;9.57;6.97;;;;;0.80;93169.00;;;;7389313;19;20152;-73
2023/12/04 12:38:29;;;;;;;11.67;7.33;;;;;0.30;93178.00;;;;7389042;19;20629;-73
2023/12/04 12:40:58;;;;;;;11.83;6.97;;;;;0.30;93161.00;;;;7389992;19;20140;-73
2023/12/04 12:43:32;;;;;;;11.47;7.50;;;;;0.00;93165.00;;;;7388469;19;20612;-73
2023/12/04 12:46:07;;;;;;;9.37;7.33;;;;;0.00;93163.00;;;;7387109;19;20633;-73
2023/12/04 12:48:44;;;;;;;11.63;7.57;;;;;-0.30;93161.00;;;;7388088;19;20135;-73
2023/12/04 12:51:18;;;;;;;10.13;6.60;;;;;-0.60;93151.00;;;;7386813;19;20208;-73